SPHI

Capitan FAP Jose A Quinones Gonzales International Airport

Chiclayo, Peru
SPHI 171100Z 1712/1812 18010KT 9999 OVC012 TX23/1719Z TN16/1811Z BECMG 1714/1716 BKN015 BECMG 1718/1720 19016KT CAVOK FM180300 18010KT 9999 BKN015
Issued Valid From Valid To
Aug-17 @ 11:00 UTC
(4 hours ago)
Aug-17 @ 12:00 UTC
(3 hours ago)
Aug-18 @ 12:00 UTC
(in 21 hours)
Expired Click to View Aug-17 @ 12:00 to Aug-17 @ 14:00
SPHI 171100Z 1712/1812 18010KT 9999 OVC012 TX23/1719Z TN16/1811Z
Wind Visibility Clouds
180° at 10 knots 10,000+ meters
  • Overcast at 1,200' AGL
Becoming Aug-17 @ 14:00 to Aug-17 @ 18:00
BECMG 1714/1716 BKN015
Wind Visibility Clouds
180° at 10 knots 10,000+ meters
  • Broken at 1,500' AGL
Becoming Aug-17 @ 18:00 to Aug-18 @ 03:00
BECMG 1718/1720 19016KT CAVOK
Wind Visibility Clouds Conditions
190° at 16 knots 10,000+ meters
  • No significant clouds
From Aug-18 @ 03:00 to Aug-18 @ 12:00
FM180300 18010KT 9999 BKN015
Wind Visibility Clouds
180° at 10 knots 10,000+ meters
  • Broken at 1,500' AGL
SPHI 171100Z 1712/1812 18010KT 9999 OVC012 TX23/1719Z TN16/1811Z BECMG 1714/1716 BKN015 BECMG 1718/1720 19016KT CAVOK FM180300 18010KT 9999 BKN015
Issued Aug-17 @ 11:00 UTC
(4 hours ago)
Valid From Aug-17 @ 12:00 UTC
(3 hours ago)
Valid To Aug-18 @ 12:00 UTC
(in 21 hours)
Aug-17 @ 12:00 - Aug-17 @ 14:00
Wind Visibility
180° at 10 knots 10,000+ meters
Clouds
  • Overcast at 1,200' AGL
Becoming Aug-17 @ 14:00 - Aug-17 @ 18:00
Wind Visibility
180° at 10 knots 10,000+ meters
Clouds
  • Broken at 1,500' AGL
Becoming Aug-17 @ 18:00 - Aug-18 @ 03:00
Wind Visibility
190° at 16 knots 10,000+ meters
Clouds
  • No significant clouds
Conditions
From Aug-18 @ 03:00 - Aug-18 @ 12:00
Wind Visibility
180° at 10 knots 10,000+ meters
Clouds
  • Broken at 1,500' AGL